Time;durP1;ratioP1;P1;durP2;ratioP2;P2;SDS_P1;SDS_P2;PMS_P1;PMS_P2;Temp;Humidity;BMP_temperature;BMP_pressure;BME280_temperature;BME280_humidity;BME280_pressure;Samples;Min_cycle;Max_cycle;Signal;HPM_P1;HPM_P2
2021/09/13 00:00:06;;;;;;;9.23;6.45;;;19.30;99.10;;;;;;5048358;28;20096;-63
2021/09/13 00:02:31;;;;;;;9.02;7.05;;;19.30;99.20;;;;;;5042824;28;20480;-63
2021/09/13 00:04:57;;;;;;;7.47;5.53;;;19.30;99.20;;;;;;5052267;28;20035;-63
2021/09/13 00:07:23;;;;;;;7.72;5.80;;;19.30;99.20;;;;;;5037738;28;20065;-64
2021/09/13 00:09:48;;;;;;;8.77;6.93;;;19.20;99.30;;;;;;5032026;28;20022;-63
2021/09/13 00:12:14;;;;;;;9.73;6.55;;;19.20;99.30;;;;;;5031551;28;20039;-63
2021/09/13 00:14:39;;;;;;;9.70;6.57;;;19.20;99.30;;;;;;5032028;28;20018;-63
2021/09/13 00:17:05;;;;;;;9.98;6.95;;;19.20;99.40;;;;;;5036460;28;20021;-63
2021/09/13 00:19:31;;;;;;;8.98;6.72;;;19.10;99.50;;;;;;5051407;28;20033;-63
2021/09/13 00:21:56;;;;;;;11.35;6.32;;;19.10;99.50;;;;;;5034650;28;20025;-63
2021/09/13 00:24:23;;;;;;;11.35;6.90;;;19.10;99.50;;;;;;5033036;28;20033;-64
2021/09/13 00:26:49;;;;;;;9.27;7.15;;;19.10;99.50;;;;;;5028462;28;20025;-64
2021/09/13 00:29:14;;;;;;;11.00;6.80;;;19.10;99.50;;;;;;5039232;28;20041;-64
2021/09/13 00:31:40;;;;;;;8.23;6.53;;;19.10;99.60;;;;;;5031677;28;20021;-64
2021/09/13 00:34:05;;;;;;;9.20;7.05;;;19.00;99.70;;;;;;5051976;28;20061;-64
2021/09/13 00:36:31;;;;;;;10.43;6.50;;;19.00;99.70;;;;;;5037298;28;20025;-64
2021/09/13 00:38:56;;;;;;;9.02;6.90;;;19.00;99.70;;;;;;5041981;28;20025;-64
2021/09/13 00:41:22;;;;;;;9.75;6.55;;;19.00;99.70;;;;;;5031163;28;20068;-63
2021/09/13 00:43:48;;;;;;;8.75;6.80;;;19.00;99.70;;;;;;5046150;28;20584;-63
2021/09/13 00:46:14;;;;;;;9.13;6.97;;;19.00;99.70;;;;;;5033105;28;20466;-64
2021/09/13 00:48:39;;;;;;;9.15;6.72;;;18.90;99.70;;;;;;5032483;28;20103;-64
2021/09/13 00:51:05;;;;;;;11.25;7.38;;;18.90;99.80;;;;;;5025493;28;20120;-63
2021/09/13 00:53:31;;;;;;;9.32;6.90;;;18.90;99.80;;;;;;5028752;28;20371;-63
2021/09/13 00:55:58;;;;;;;9.57;7.10;;;18.90;99.90;;;;;;5031920;28;20413;-63
2021/09/13 00:58:27;;;;;;;9.35;5.97;;;18.90;99.90;;;;;;5026377;28;20036;-63
2021/09/13 01:00:53;;;;;;;11.63;7.18;;;18.90;99.80;;;;;;5029008;28;20477;-63
2021/09/13 01:03:18;;;;;;;9.73;6.88;;;18.90;99.80;;;;;;5035530;28;20039;-63
2021/09/13 01:05:44;;;;;;;11.07;6.60;;;18.90;99.80;;;;;;5030840;28;20108;-63
2021/09/13 01:08:09;;;;;;;7.82;6.25;;;18.80;99.80;;;;;;5030633;28;20478;-63
2021/09/13 01:10:35;;;;;;;11.80;7.72;;;18.80;99.80;;;;;;5036493;28;20433;-63
2021/09/13 01:13:01;;;;;;;9.05;6.78;;;18.80;99.80;;;;;;5029687;28;20431;-63
2021/09/13 01:15:26;;;;;;;11.45;6.78;;;18.70;99.80;;;;;;5029700;28;20032;-63
2021/09/13 01:17:52;;;;;;;8.32;6.80;;;18.70;99.80;;;;;;5049721;28;20121;-62
2021/09/13 01:20:17;;;;;;;9.02;6.35;;;18.70;99.90;;;;;;5030950;28;20025;-62
2021/09/13 01:22:46;;;;;;;8.75;7.13;;;18.70;99.90;;;;;;5044465;28;20500;-63
2021/09/13 01:25:11;;;;;;;10.10;6.38;;;18.60;99.80;;;;;;5036558;28;20022;-63
2021/09/13 01:27:37;;;;;;;10.20;6.82;;;18.60;99.90;;;;;;5026129;28;20567;-63
2021/09/13 01:30:04;;;;;;;8.88;7.00;;;18.60;99.90;;;;;;5032203;28;20028;-63
2021/09/13 01:32:30;;;;;;;11.20;7.15;;;18.60;99.80;;;;;;5046832;28;20111;-63
2021/09/13 01:34:55;;;;;;;13.57;7.40;;;18.60;99.90;;;;;;5036714;28;20172;-63
2021/09/13 01:37:21;;;;;;;9.90;7.22;;;18.60;99.80;;;;;;5032352;28;20048;-63
2021/09/13 01:39:46;;;;;;;8.43;6.65;;;18.60;99.90;;;;;;5043846;28;20040;-63
2021/09/13 01:42:12;;;;;;;9.70;6.60;;;18.50;99.90;;;;;;5029687;28;20025;-63
2021/09/13 01:44:37;;;;;;;10.35;6.63;;;18.50;99.90;;;;;;5025840;28;20539;-62
2021/09/13 01:47:03;;;;;;;9.55;6.82;;;18.50;99.90;;;;;;5031299;28;20029;-62
2021/09/13 01:49:29;;;;;;;8.07;6.30;;;18.50;99.90;;;;;;5030066;28;20032;-62
2021/09/13 01:51:54;;;;;;;10.68;6.57;;;18.50;99.90;;;;;;5021462;28;20042;-62
2021/09/13 01:54:20;;;;;;;9.45;6.70;;;18.50;99.90;;;;;;5025871;28;20386;-63
2021/09/13 01:56:45;;;;;;;8.98;7.60;;;18.50;99.90;;;;;;5028155;28;20025;-62
2021/09/13 01:59:10;;;;;;;8.55;6.95;;;18.50;99.90;;;;;;5042679;28;20074;-63
2021/09/13 02:01:36;;;;;;;9.27;7.25;;;18.50;99.90;;;;;;5029752;28;20585;-63
2021/09/13 02:04:03;;;;;;;9.30;7.32;;;18.50;99.90;;;;;;5045442;28;20030;-63
2021/09/13 02:06:30;;;;;;;11.38;7.13;;;18.50;99.90;;;;;;5029728;28;20485;-63
2021/09/13 02:08:56;;;;;;;8.90;6.85;;;18.50;99.90;;;;;;5033440;28;20034;-63
2021/09/13 02:11:22;;;;;;;11.63;7.50;;;18.50;99.90;;;;;;5032676;28;20034;-63
2021/09/13 02:13:47;;;;;;;11.02;6.93;;;18.50;99.90;;;;;;5034920;28;20029;-63
2021/09/13 02:16:13;;;;;;;12.88;7.30;;;18.50;99.90;;;;;;5026208;28;20033;-63
2021/09/13 02:18:38;;;;;;;8.63;6.47;;;18.40;99.90;;;;;;5033261;28;20485;-63
2021/09/13 02:21:04;;;;;;;9.45;6.82;;;18.40;99.90;;;;;;5038681;28;20401;-63
2021/09/13 02:23:29;;;;;;;8.70;6.85;;;18.40;99.90;;;;;;5036644;28;20535;-63
2021/09/13 02:25:55;;;;;;;9.43;7.13;;;18.50;99.90;;;;;;5041785;28;20021;-63
2021/09/13 02:28:20;;;;;;;10.40;6.97;;;18.40;99.90;;;;;;5054126;28;20026;-63
2021/09/13 02:30:46;;;;;;;9.48;6.15;;;18.40;99.90;;;;;;5035632;28;20041;-63
2021/09/13 02:33:11;;;;;;;9.05;7.03;;;18.40;99.90;;;;;;5033556;28;20602;-63
2021/09/13 02:35:37;;;;;;;9.07;6.90;;;18.40;99.90;;;;;;5033403;28;20022;-63
2021/09/13 02:38:03;;;;;;;10.38;7.22;;;18.40;99.90;;;;;;5043272;28;20484;-63
2021/09/13 02:40:28;;;;;;;9.52;6.63;;;18.40;99.90;;;;;;5040853;28;20040;-63
2021/09/13 02:42:54;;;;;;;11.48;7.10;;;18.40;99.90;;;;;;5028928;28;20026;-63
2021/09/13 02:45:19;;;;;;;8.77;6.63;;;18.40;99.90;;;;;;5032615;28;20111;-63
2021/09/13 02:47:45;;;;;;;9.63;6.88;;;18.30;99.90;;;;;;5035754;28;20037;-64
2021/09/13 02:50:11;;;;;;;9.73;7.22;;;18.30;99.90;;;;;;5032939;28;20037;-64
2021/09/13 02:52:37;;;;;;;9.60;6.85;;;18.30;99.90;;;;;;5045789;28;20040;-63
2021/09/13 02:55:04;;;;;;;10.45;6.97;;;18.30;99.90;;;;;;5049452;28;20052;-64
2021/09/13 02:57:30;;;;;;;6.85;5.65;;;18.30;99.90;;;;;;5032236;28;20033;-63
2021/09/13 02:59:55;;;;;;;9.50;6.60;;;18.20;99.90;;;;;;5035453;28;20071;-63
2021/09/13 03:02:21;;;;;;;11.27;6.65;;;18.30;99.90;;;;;;5025269;28;20083;-63
2021/09/13 03:04:46;;;;;;;9.40;6.63;;;18.20;99.90;;;;;;5033312;28;20112;-63
2021/09/13 03:07:12;;;;;;;11.27;7.35;;;18.20;99.80;;;;;;5042087;28;20036;-63
2021/09/13 03:09:39;;;;;;;9.73;6.80;;;18.20;99.80;;;;;;5039531;28;20026;-63
2021/09/13 03:12:04;;;;;;;9.20;7.25;;;18.20;99.90;;;;;;5041260;28;20036;-63
2021/09/13 03:14:31;;;;;;;9.48;6.70;;;18.20;99.90;;;;;;5036841;28;20505;-63
2021/09/13 03:16:57;;;;;;;9.48;6.45;;;18.20;99.80;;;;;;5029055;28;20036;-63
2021/09/13 03:19:22;;;;;;;8.55;6.30;;;18.20;99.80;;;;;;5024227;28;20026;-63
2021/09/13 03:21:48;;;;;;;8.30;6.85;;;18.10;99.80;;;;;;5026071;28;20024;-63
2021/09/13 03:24:14;;;;;;;10.57;7.10;;;18.10;99.80;;;;;;5034172;28;20383;-63
2021/09/13 03:26:39;;;;;;;12.52;6.68;;;18.10;99.80;;;;;;5035291;28;20095;-63
2021/09/13 03:29:05;;;;;;;9.63;6.72;;;18.10;99.90;;;;;;5042065;28;20049;-63
2021/09/13 03:31:30;;;;;;;8.57;6.45;;;18.10;99.90;;;;;;5031972;28;20064;-63
2021/09/13 03:33:56;;;;;;;10.73;6.47;;;18.10;99.90;;;;;;5032348;28;20013;-63
2021/09/13 03:36:21;;;;;;;9.35;6.47;;;18.10;99.90;;;;;;5032189;28;20068;-63
2021/09/13 03:38:47;;;;;;;7.95;5.97;;;18.00;99.90;;;;;;5032252;28;20021;-64
2021/09/13 03:41:12;;;;;;;8.82;7.35;;;18.00;99.90;;;;;;5031666;28;20033;-64
2021/09/13 03:43:38;;;;;;;11.57;7.82;;;18.00;99.90;;;;;;5047695;28;20033;-64
2021/09/13 03:46:04;;;;;;;14.48;7.35;;;18.00;99.90;;;;;;5028832;28;20037;-64
2021/09/13 03:48:29;;;;;;;8.85;6.80;;;18.00;99.90;;;;;;5033058;28;20104;-63
2021/09/13 03:50:55;;;;;;;9.85;7.25;;;18.00;99.90;;;;;;5026229;28;20041;-63
2021/09/13 03:53:20;;;;;;;11.32;6.45;;;17.90;99.90;;;;;;5030231;28;20480;-63
2021/09/13 03:55:46;;;;;;;9.15;6.35;;;17.90;99.90;;;;;;5022781;28;20049;-63
2021/09/13 03:58:11;;;;;;;12.48;6.68;;;17.90;99.90;;;;;;5035821;28;20490;-63
2021/09/13 04:00:37;;;;;;;9.35;7.25;;;17.90;99.90;;;;;;5031298;28;20029;-64
2021/09/13 04:03:04;;;;;;;10.90;7.93;;;17.90;99.90;;;;;;5031639;28;20037;-63
2021/09/13 04:05:30;;;;;;;11.73;7.20;;;17.90;99.90;;;;;;5033713;28;20111;-63
2021/09/13 04:12:47;;;;;;;9.05;6.05;;;17.90;99.90;;;;;;5036327;28;20026;-62
2021/09/13 04:15:14;;;;;;;7.25;6.03;;;17.80;99.90;;;;;;5040703;28;20029;-62
2021/09/13 04:17:40;;;;;;;6.85;5.38;;;17.80;99.80;;;;;;5026502;28;20067;-64
2021/09/13 04:20:05;;;;;;;8.52;5.15;;;17.80;99.80;;;;;;5022628;28;20585;-63
2021/09/13 04:22:31;;;;;;;12.18;5.80;;;17.80;99.70;;;;;;5042683;28;20028;-63
2021/09/13 04:24:58;;;;;;;8.10;5.57;;;17.80;99.60;;;;;;5044950;28;20055;-63
2021/09/13 04:27:24;;;;;;;8.13;4.80;;;17.80;99.60;;;;;;5038884;28;20037;-63
2021/09/13 04:29:49;;;;;;;7.78;5.13;;;17.80;99.50;;;;;;5033546;28;20039;-63
2021/09/13 04:32:15;;;;;;;6.03;4.63;;;17.70;99.40;;;;;;5039390;28;20552;-63
2021/09/13 04:34:40;;;;;;;7.00;4.63;;;17.70;99.30;;;;;;5032012;28;20113;-64
2021/09/13 04:37:06;;;;;;;7.47;4.70;;;17.70;99.20;;;;;;5033125;28;20060;-64
2021/09/13 04:39:31;;;;;;;8.23;4.20;;;17.70;99.20;;;;;;5042985;28;20024;-64
2021/09/13 04:41:57;;;;;;;7.47;4.57;;;17.60;99.10;;;;;;5037569;28;20026;-64
2021/09/13 04:44:22;;;;;;;5.90;4.13;;;17.60;99.10;;;;;;5030280;28;20120;-64
2021/09/13 04:46:48;;;;;;;7.18;4.47;;;17.60;99.00;;;;;;5030601;28;20037;-64
2021/09/13 04:49:13;;;;;;;7.20;4.30;;;17.60;99.00;;;;;;5031649;28;20048;-64
2021/09/13 04:51:39;;;;;;;5.00;3.65;;;17.60;99.00;;;;;;5035048;28;20037;-64
2021/09/13 04:54:04;;;;;;;6.72;3.92;;;17.60;99.00;;;;;;5032918;28;20021;-63
2021/09/13 04:56:30;;;;;;;6.05;4.20;;;17.60;99.00;;;;;;5030212;28;20033;-63
2021/09/13 04:58:55;;;;;;;7.00;4.30;;;17.50;99.00;;;;;;5030824;28;20030;-64
2021/09/13 05:01:21;;;;;;;5.82;4.15;;;17.50;98.90;;;;;;5033082;28;20100;-63
2021/09/13 05:03:47;;;;;;;5.13;3.95;;;17.50;98.80;;;;;;5034766;28;20110;-65
2021/09/13 05:06:13;;;;;;;6.65;3.83;;;17.50;98.70;;;;;;5030493;28;20485;-64
2021/09/13 05:08:38;;;;;;;5.65;3.53;;;17.40;98.80;;;;;;5037507;28;20071;-65
2021/09/13 05:11:04;;;;;;;6.85;3.88;;;17.40;98.80;;;;;;5031040;28;20033;-65
2021/09/13 05:13:29;;;;;;;6.45;4.45;;;17.40;98.80;;;;;;5032345;28;20110;-65
2021/09/13 05:15:55;;;;;;;8.20;4.40;;;17.50;98.80;;;;;;5028124;28;20030;-65
2021/09/13 05:18:20;;;;;;;8.82;4.03;;;17.50;98.80;;;;;;5032110;28;20505;-63
2021/09/13 05:20:46;;;;;;;5.45;4.07;;;17.50;98.70;;;;;;5029918;28;20026;-64
2021/09/13 05:23:11;;;;;;;8.23;3.42;;;17.50;98.80;;;;;;5026991;28;20029;-65
2021/09/13 05:25:37;;;;;;;5.35;3.70;;;17.50;98.70;;;;;;5044632;28;20429;-65
2021/09/13 05:28:02;;;;;;;4.90;3.65;;;17.60;98.70;;;;;;5027118;28;20064;-66
2021/09/13 05:30:28;;;;;;;6.22;3.88;;;17.60;98.60;;;;;;5035659;28;20048;-67
2021/09/13 05:32:54;;;;;;;5.50;3.67;;;17.60;98.70;;;;;;5033114;28;20160;-66
2021/09/13 05:35:20;;;;;;;5.55;3.60;;;17.60;98.70;;;;;;5029495;28;20052;-66
2021/09/13 05:37:46;;;;;;;7.85;3.53;;;17.60;98.70;;;;;;5031470;28;20036;-66
2021/09/13 05:40:12;;;;;;;7.22;4.43;;;17.60;98.60;;;;;;5044597;28;20385;-67
2021/09/13 05:42:37;;;;;;;5.43;3.97;;;17.60;98.60;;;;;;5045580;28;20060;-66
2021/09/13 05:45:03;;;;;;;6.80;4.07;;;17.70;98.60;;;;;;5034263;28;20084;-66
2021/09/13 05:47:29;;;;;;;5.50;3.35;;;17.70;98.60;;;;;;5044445;28;20029;-66
2021/09/13 05:49:54;;;;;;;5.07;3.60;;;17.70;98.60;;;;;;5035343;28;20029;-65
2021/09/13 05:52:20;;;;;;;5.82;3.65;;;17.70;98.50;;;;;;5033659;28;20037;-77
2021/09/13 05:54:45;;;;;;;7.75;4.15;;;17.70;98.70;;;;;;5039450;28;20128;-79
2021/09/13 05:57:11;;;;;;;6.88;3.67;;;17.80;98.80;;;;;;5044570;28;20029;-79
2021/09/13 05:59:36;;;;;;;6.40;3.50;;;17.90;98.80;;;;;;5042487;28;20232;-79
2021/09/13 06:02:03;;;;;;;7.47;3.63;;;18.00;98.60;;;;;;5038511;28;20088;-78
2021/09/13 06:04:30;;;;;;;8.40;4.07;;;18.10;98.70;;;;;;5028965;28;20026;-79
2021/09/13 06:06:55;;;;;;;6.30;3.28;;;18.30;98.60;;;;;;5033227;28;20508;-78
2021/09/13 06:09:21;;;;;;;6.47;3.38;;;18.40;98.50;;;;;;5042120;28;20033;-77
2021/09/13 06:11:46;;;;;;;7.18;3.38;;;18.50;98.00;;;;;;5042372;28;20038;-78
2021/09/13 06:14:12;;;;;;;3.85;3.10;;;18.60;98.00;;;;;;5030577;28;20021;-79
2021/09/13 06:16:37;;;;;;;6.38;2.97;;;18.80;97.80;;;;;;5032386;28;20393;-78
2021/09/13 06:19:03;;;;;;;6.95;3.63;;;19.00;97.60;;;;;;5036125;28;20044;-78
2021/09/13 06:21:29;;;;;;;5.53;3.35;;;19.00;97.30;;;;;;5034344;28;20513;-78
2021/09/13 06:23:54;;;;;;;5.80;3.17;;;19.00;97.20;;;;;;5046549;28;20067;-79
2021/09/13 06:26:19;;;;;;;8.20;3.80;;;19.10;97.00;;;;;;5039923;28;20048;-78
2021/09/13 06:28:45;;;;;;;5.45;3.08;;;19.20;97.00;;;;;;5033638;28;20017;-78
2021/09/13 06:31:11;;;;;;;5.32;3.25;;;19.20;97.10;;;;;;5040052;28;20033;-82
2021/09/13 06:33:36;;;;;;;6.22;2.80;;;19.20;97.10;;;;;;5040139;28;20064;-83
2021/09/13 06:36:02;;;;;;;5.75;3.55;;;19.30;97.10;;;;;;5031152;28;20036;-82
2021/09/13 06:38:31;;;;;;;5.95;3.60;;;19.40;96.70;;;;;;5035555;28;20040;-85
2021/09/13 06:40:57;;;;;;;5.93;3.80;;;19.50;96.70;;;;;;5031514;28;20622;-84
2021/09/13 06:43:24;;;;;;;5.82;3.08;;;19.60;96.50;;;;;;5035748;28;20080;-82
2021/09/13 06:45:57;;;;;;;4.13;2.90;;;19.60;96.20;;;;;;5026917;28;20120;-83
2021/09/13 06:48:22;;;;;;;5.55;2.78;;;19.70;96.30;;;;;;5041086;28;20033;-82
2021/09/13 06:50:48;;;;;;;6.97;3.33;;;19.70;96.20;;;;;;5033587;28;20045;-78
2021/09/13 06:53:13;;;;;;;5.25;3.10;;;19.80;96.00;;;;;;5031127;28;20018;-72
2021/09/13 06:55:39;;;;;;;5.75;3.38;;;19.80;95.90;;;;;;5035372;28;20105;-83
2021/09/13 06:58:07;;;;;;;6.45;3.70;;;19.80;95.80;;;;;;5044926;28;20469;-77
2021/09/13 07:00:32;;;;;;;6.22;3.38;;;19.80;95.80;;;;;;5040026;28;20035;-73
2021/09/13 07:02:59;;;;;;;4.93;3.17;;;19.70;96.10;;;;;;5026158;28;20477;-75
2021/09/13 07:05:25;;;;;;;5.63;3.05;;;19.70;95.90;;;;;;5033400;28;20041;-77
2021/09/13 07:07:51;;;;;;;7.22;3.47;;;19.80;96.00;;;;;;5030579;28;20025;-75
2021/09/13 07:10:17;;;;;;;5.85;3.17;;;19.80;95.90;;;;;;5038988;28;20037;-80
2021/09/13 07:12:44;;;;;;;8.95;3.42;;;19.80;95.90;;;;;;5035013;28;20033;-79
2021/09/13 07:15:10;;;;;;;6.15;3.03;;;20.00;95.80;;;;;;5049228;28;20025;-83
2021/09/13 07:17:36;;;;;;;6.85;2.88;;;20.00;95.50;;;;;;5039040;28;20047;-81
2021/09/13 07:20:01;;;;;;;12.88;3.20;;;20.20;95.30;;;;;;5046013;28;20021;-81
2021/09/13 07:22:27;;;;;;;5.13;2.80;;;20.30;95.10;;;;;;5040019;28;20079;-78
2021/09/13 07:24:52;;;;;;;6.80;2.88;;;20.30;94.80;;;;;;5041027;28;20564;-79
2021/09/13 07:27:18;;;;;;;5.05;3.13;;;20.40;94.80;;;;;;5036424;28;20040;-77
2021/09/13 07:29:43;;;;;;;4.80;2.45;;;20.40;94.70;;;;;;5034391;28;20035;-82
2021/09/13 07:32:09;;;;;;;4.85;2.85;;;20.50;94.50;;;;;;5030575;28;20029;-77
2021/09/13 07:34:35;;;;;;;3.50;2.53;;;20.50;94.40;;;;;;5041437;28;20033;-80
2021/09/13 07:37:01;;;;;;;4.88;2.78;;;20.60;94.40;;;;;;5036044;28;20028;-80
2021/09/13 07:39:28;;;;;;;4.60;2.42;;;20.50;94.20;;;;;;5032772;28;20021;-78
2021/09/13 07:41:54;;;;;;;5.18;2.70;;;20.50;94.00;;;;;;5044727;28;20071;-78
2021/09/13 07:44:19;;;;;;;3.67;2.22;;;20.60;93.80;;;;;;5044603;28;20041;-77
2021/09/13 07:46:45;;;;;;;7.00;3.20;;;20.50;93.70;;;;;;5031698;28;20541;-78
2021/09/13 07:49:11;;;;;;;8.48;3.05;;;20.40;93.80;;;;;;5029258;28;20083;-77
2021/09/13 07:51:36;;;;;;;8.35;3.35;;;20.40;93.60;;;;;;5034922;28;20041;-77
2021/09/13 07:54:02;;;;;;;6.47;3.20;;;20.40;93.60;;;;;;5028548;28;20029;-77
2021/09/13 07:56:28;;;;;;;6.38;3.28;;;20.40;93.60;;;;;;5042309;28;20087;-79
2021/09/13 07:58:54;;;;;;;11.02;3.17;;;20.50;93.50;;;;;;5037682;28;20056;-79
2021/09/13 08:01:20;;;;;;;7.00;3.30;;;20.60;93.30;;;;;;5031434;28;20051;-78
2021/09/13 08:03:45;;;;;;;10.30;3.88;;;20.60;93.20;;;;;;5037642;28;20112;-80
2021/09/13 08:06:11;;;;;;;6.25;3.20;;;20.70;92.90;;;;;;5029075;28;20486;-80
2021/09/13 08:08:37;;;;;;;5.57;3.05;;;20.70;92.80;;;;;;5039324;28;20029;-80
2021/09/13 08:11:04;;;;;;;5.40;2.80;;;20.80;92.60;;;;;;5027740;28;20082;-79
2021/09/13 08:13:30;;;;;;;4.60;2.40;;;20.80;92.40;;;;;;5029988;28;20090;-79
2021/09/13 08:15:55;;;;;;;7.40;2.92;;;20.80;92.60;;;;;;5034790;28;20449;-78
2021/09/13 08:18:21;;;;;;;3.60;2.55;;;20.80;92.40;;;;;;5030187;28;20036;-80
2021/09/13 08:20:46;;;;;;;6.28;3.05;;;20.80;92.50;;;;;;5031489;28;20017;-78
2021/09/13 08:23:12;;;;;;;4.63;2.72;;;20.80;92.40;;;;;;5041161;28;20032;-79
2021/09/13 08:25:37;;;;;;;5.88;3.00;;;20.90;92.30;;;;;;5032174;28;20060;-80
2021/09/13 08:28:03;;;;;;;5.07;2.75;;;20.90;92.40;;;;;;5045677;28;20425;-81
2021/09/13 08:30:28;;;;;;;7.47;3.42;;;21.00;92.30;;;;;;5042196;28;20029;-80
2021/09/13 08:32:54;;;;;;;7.13;2.63;;;21.00;92.00;;;;;;5030614;28;20044;-81
2021/09/13 08:35:19;;;;;;;5.45;2.97;;;21.10;92.10;;;;;;5051068;28;20428;-81
2021/09/13 08:37:45;;;;;;;7.35;2.42;;;21.10;92.20;;;;;;5036689;28;20033;-81
2021/09/13 08:40:11;;;;;;;3.85;2.13;;;21.20;91.80;;;;;;5050154;28;20025;-81
2021/09/13 08:42:44;;;;;;;8.73;2.78;;;21.20;91.80;;;;;;5036718;28;20493;-80
2021/09/13 08:45:11;;;;;;;6.82;2.53;;;21.30;91.60;;;;;;5039895;28;20073;-81
2021/09/13 08:47:48;;;;;;;5.57;2.40;;;21.40;91.40;;;;;;5040384;28;20035;-81
2021/09/13 08:53:15;;;;;;;4.50;2.28;;;21.40;91.50;;;;;;5006475;28;20037;-80
2021/09/13 08:55:41;;;;;;;4.03;2.63;;;21.50;91.60;;;;;;5037582;28;20060;-80
2021/09/13 08:58:07;;;;;;;4.85;1.92;;;21.50;91.60;;;;;;5038238;28;20033;-80
2021/09/13 09:00:36;;;;;;;4.70;2.00;;;21.50;91.40;;;;;;5030327;28;20432;-80
2021/09/13 09:03:03;;;;;;;4.40;1.75;;;21.60;91.30;;;;;;5029507;28;20026;-80
2021/09/13 09:05:29;;;;;;;4.72;2.22;;;21.70;91.30;;;;;;5037876;28;20038;-79
2021/09/13 09:07:55;;;;;;;4.45;2.05;;;21.70;91.10;;;;;;5034188;28;20033;-79
2021/09/13 09:10:24;;;;;;;4.38;1.90;;;21.70;90.80;;;;;;5038256;28;20038;-80
2021/09/13 09:12:57;;;;;;;4.40;1.70;;;21.70;90.80;;;;;;5030829;28;20115;-79
2021/09/13 09:15:23;;;;;;;2.83;1.77;;;21.80;90.40;;;;;;5030898;28;20517;-80
2021/09/13 09:17:56;;;;;;;12.38;2.15;;;21.80;90.40;;;;;;5036533;28;20057;-80
2021/09/13 09:20:23;;;;;;;4.15;1.85;;;21.80;90.10;;;;;;5037344;28;20465;-80
2021/09/13 09:23:03;;;;;;;3.72;1.90;;;21.80;89.70;;;;;;5050419;28;20485;-79
2021/09/13 09:25:33;;;;;;;4.32;1.83;;;21.90;90.20;;;;;;5036485;28;20031;-80
2021/09/13 09:28:01;;;;;;;4.65;1.90;;;22.00;90.20;;;;;;5047639;28;20477;-79
2021/09/13 09:30:43;;;;;;;3.03;1.70;;;22.00;90.10;;;;;;5045801;28;20033;-80
2021/09/13 09:33:17;;;;;;;2.97;2.08;;;22.10;89.50;;;;;;5028471;28;20566;-80
2021/09/13 09:35:51;;;;;;;3.05;1.73;;;22.20;88.90;;;;;;5033638;28;20037;-80
2021/09/13 09:38:37;;;;;;;4.97;1.77;;;22.20;89.10;;;;;;5048169;28;20055;-80
2021/09/13 09:41:06;;;;;;;3.00;1.80;;;22.30;88.70;;;;;;5046177;28;20025;-80
2021/09/13 09:43:56;;;;;;;2.45;1.55;;;22.40;88.40;;;;;;5037165;28;20085;-79
2021/09/13 09:46:23;;;;;;;3.47;1.90;;;22.50;88.00;;;;;;5044217;28;20037;-79
2021/09/13 09:48:49;;;;;;;3.45;1.80;;;22.60;88.50;;;;;;5052543;28;20021;-80
2021/09/13 09:51:25;;;;;;;3.83;2.20;;;22.60;88.40;;;;;;5042630;28;20099;-80
2021/09/13 09:53:50;;;;;;;3.97;2.55;;;22.60;88.30;;;;;;5027006;28;20029;-80
2021/09/13 09:56:16;;;;;;;4.00;2.22;;;22.60;88.20;;;;;;5038390;28;20057;-79
2021/09/13 09:59:00;;;;;;;4.72;2.80;;;22.60;88.60;;;;;;5034351;28;20022;-80
2021/09/13 10:01:46;;;;;;;4.15;2.40;;;22.60;88.50;;;;;;5038348;28;20025;-80
2021/09/13 10:04:16;;;;;;;5.97;3.45;;;22.60;89.00;;;;;;5045546;28;20040;-80
2021/09/13 10:06:46;;;;;;;4.30;2.00;;;22.60;89.30;;;;;;5051318;28;20048;-80
2021/09/13 10:09:13;;;;;;;4.50;2.40;;;22.60;89.50;;;;;;5033808;28;20500;-78
2021/09/13 10:11:40;;;;;;;4.13;2.28;;;22.50;89.40;;;;;;5049172;28;20091;-74
2021/09/13 10:14:09;;;;;;;4.35;2.35;;;22.50;89.10;;;;;;5034031;28;20576;-78
2021/09/13 10:16:37;;;;;;;3.47;2.25;;;22.50;89.70;;;;;;5035149;28;20029;-78
2021/09/13 10:19:03;;;;;;;3.75;2.17;;;22.60;89.50;;;;;;5046334;28;20453;-79
2021/09/13 10:21:28;;;;;;;5.22;2.42;;;22.60;89.90;;;;;;5037964;28;20028;-78
2021/09/13 10:23:55;;;;;;;3.95;2.22;;;22.60;89.70;;;;;;5034286;28;20029;-78
2021/09/13 10:26:21;;;;;;;4.97;3.10;;;22.70;89.50;;;;;;5036281;28;20040;-79
2021/09/13 10:29:02;;;;;;;4.30;2.42;;;22.80;88.90;;;;;;5047714;28;20017;-76
2021/09/13 10:31:46;;;;;;;2.72;2.08;;;22.90;88.90;;;;;;5037703;28;20041;-78
2021/09/13 10:34:23;;;;;;;4.13;2.30;;;22.90;88.90;;;;;;5042893;28;20025;-73
2021/09/13 10:37:03;;;;;;;5.35;2.60;;;22.90;88.60;;;;;;5035714;28;20037;-76
2021/09/13 10:39:46;;;;;;;5.55;3.13;;;22.90;88.60;;;;;;5049157;28;20036;-75
2021/09/13 10:42:41;;;;;;;21.33;4.15;;;22.80;88.10;;;;;;5033133;28;20036;-73
2021/09/13 10:45:23;;;;;;;4.63;2.03;;;22.80;88.90;;;;;;5034485;28;20065;-75
2021/09/13 10:48:09;;;;;;;4.35;2.03;;;22.80;88.80;;;;;;5029426;28;20037;-73
2021/09/13 10:50:46;;;;;;;8.60;3.15;;;22.80;88.20;;;;;;5031944;28;20041;-74
2021/09/13 10:53:18;;;;;;;4.72;1.90;;;22.80;88.50;;;;;;5031924;28;20026;-74
2021/09/13 10:55:45;;;;;;;3.45;2.22;;;22.90;88.20;;;;;;5047639;28;20072;-73
2021/09/13 10:58:17;;;;;;;5.40;2.42;;;22.90;88.20;;;;;;5050428;28;20037;-73
2021/09/13 11:00:43;;;;;;;4.53;2.38;;;22.90;88.00;;;;;;5015002;28;20038;-73
2021/09/13 11:03:26;;;;;;;4.22;2.50;;;22.90;88.20;;;;;;5031184;28;20112;-74
2021/09/13 11:08:37;;;;;;;3.65;2.45;;;23.00;87.30;;;;;;5039242;28;20031;-74
2021/09/13 11:11:08;;;;;;;2.80;2.00;;;22.90;87.60;;;;;;5029927;28;20038;-74
2021/09/13 11:13:34;;;;;;;3.65;2.15;;;22.90;87.20;;;;;;5024467;28;20056;-74
2021/09/13 11:16:00;;;;;;;5.53;2.45;;;22.70;87.80;;;;;;5038576;28;20033;-74
2021/09/13 11:18:41;;;;;;;4.80;2.13;;;22.70;88.30;;;;;;5031764;28;20033;-74
2021/09/13 11:21:18;;;;;;;2.67;1.95;;;22.70;87.90;;;;;;5043846;28;20034;-74
2021/09/13 11:24:10;;;;;;;3.20;1.85;;;22.70;87.80;;;;;;5030155;28;20099;-70
2021/09/13 11:27:04;;;;;;;9.85;2.92;;;22.80;88.30;;;;;;5022033;28;20030;-72
2021/09/13 11:29:37;;;;;;;4.78;2.33;;;22.80;88.10;;;;;;5040626;28;20037;-72
2021/09/13 11:32:09;;;;;;;5.43;1.87;;;22.80;88.10;;;;;;5034915;28;20446;-72
2021/09/13 11:34:34;;;;;;;9.18;2.70;;;22.80;88.10;;;;;;5023934;28;20308;-71
2021/09/13 11:37:03;;;;;;;4.93;2.10;;;22.80;87.70;;;;;;5029461;28;20099;-71
2021/09/13 11:39:42;;;;;;;3.85;1.77;;;22.80;87.60;;;;;;5030549;28;20048;-72
2021/09/13 11:42:17;;;;;;;3.75;1.75;;;22.80;87.70;;;;;;5030931;28;20445;-72
2021/09/13 11:45:07;;;;;;;4.47;2.50;;;22.80;87.90;;;;;;5054286;28;20037;-72
2021/09/13 11:47:35;;;;;;;3.60;2.13;;;22.90;87.70;;;;;;5038635;28;20041;-73
2021/09/13 11:50:04;;;;;;;4.78;2.25;;;22.80;88.10;;;;;;5029803;28;20057;-72
2021/09/13 11:52:39;;;;;;;4.63;2.33;;;22.90;87.90;;;;;;5028845;28;20422;-72
2021/09/13 11:55:08;;;;;;;4.25;1.80;;;22.80;87.50;;;;;;5021392;28;20045;-72
2021/09/13 11:57:48;;;;;;;4.13;2.10;;;22.80;87.60;;;;;;5033095;28;20508;-72
2021/09/13 12:00:22;;;;;;;5.90;2.53;;;22.80;87.80;;;;;;5039107;28;20034;-73
2021/09/13 12:02:57;;;;;;;4.63;2.33;;;22.80;87.50;;;;;;5039622;28;20378;-72
2021/09/13 12:05:29;;;;;;;3.42;2.15;;;22.90;87.70;;;;;;5032781;28;20056;-71
2021/09/13 12:07:55;;;;;;;4.10;1.77;;;22.90;87.00;;;;;;5031416;28;20386;-77
2021/09/13 12:10:29;;;;;;;4.65;1.90;;;23.00;86.30;;;;;;5029130;28;20477;-72
2021/09/13 12:13:10;;;;;;;3.65;2.05;;;23.00;87.10;;;;;;5025582;28;20202;-69
2021/09/13 12:15:36;;;;;;;4.03;2.08;;;23.10;87.10;;;;;;5030682;28;20029;-70
2021/09/13 12:18:04;;;;;;;3.50;1.98;;;23.10;86.60;;;;;;5033227;28;20113;-73
2021/09/13 12:20:32;;;;;;;3.83;1.95;;;23.20;86.30;;;;;;5033711;28;20089;-71
2021/09/13 12:23:09;;;;;;;3.45;1.83;;;23.30;87.00;;;;;;5031985;28;20363;-72
2021/09/13 12:25:41;;;;;;;3.85;2.33;;;23.40;87.00;;;;;;5034883;28;20041;-73
2021/09/13 12:28:07;;;;;;;3.05;2.25;;;23.50;85.90;;;;;;5028472;28;20026;-72
2021/09/13 12:30:35;;;;;;;5.28;2.20;;;23.60;85.70;;;;;;5026845;28;20111;-73
2021/09/13 12:33:05;;;;;;;3.10;2.00;;;23.50;85.40;;;;;;5027461;28;20033;-73
2021/09/13 12:35:35;;;;;;;3.67;2.00;;;23.50;85.70;;;;;;5029968;28;22692;-73
2021/09/13 12:38:09;;;;;;;5.75;2.78;;;23.40;85.80;;;;;;5028277;28;20462;-71
2021/09/13 12:40:57;;;;;;;4.32;2.42;;;23.40;85.90;;;;;;5036812;28;20056;-72
2021/09/13 12:43:31;;;;;;;4.03;2.00;;;23.30;83.50;;;;;;5030770;28;20045;-74
2021/09/13 12:46:05;;;;;;;;;;;23.20;85.10;;;;;;5029444;28;20099;-74
2021/09/13 12:48:33;;;;;;;4.32;2.53;;;23.10;85.10;;;;;;5023300;28;19920;-74
2021/09/13 12:50:59;;;;;;;6.80;2.63;;;23.00;86.20;;;;;;5049155;28;20033;-73
2021/09/13 12:53:28;;;;;;;4.47;2.10;;;22.90;86.50;;;;;;5027032;28;20029;-74
2021/09/13 12:55:55;;;;;;;4.68;2.13;;;22.80;86.70;;;;;;5031084;28;20091;-73
2021/09/13 12:58:27;;;;;;;4.97;2.33;;;22.70;87.30;;;;;;5029294;28;20517;-77